createdAt,value
2022-10-29T00:00:09.013Z,101940.27
2022-10-29T00:02:39.363Z,101939.98
2022-10-29T00:05:09.800Z,101945.57
2022-10-29T00:07:40.191Z,101947.93
2022-10-29T00:10:10.369Z,101940.19
2022-10-29T00:12:40.736Z,101934.13
2022-10-29T00:15:11.081Z,101938.33
2022-10-29T00:17:41.445Z,101941.63
2022-10-29T00:20:11.813Z,101941.05
2022-10-29T00:22:42.161Z,101943.96
2022-10-29T00:25:12.511Z,101947.28
2022-10-29T00:27:42.888Z,101947.47
2022-10-29T00:30:13.235Z,101949.39
2022-10-29T00:32:43.739Z,101947.14
2022-10-29T00:35:13.990Z,101946.52
2022-10-29T00:37:44.356Z,101947.33
2022-10-29T00:40:14.715Z,101941.25
2022-10-29T00:42:45.103Z,101940.01
2022-10-29T00:45:15.458Z,101945.04
2022-10-29T00:47:45.855Z,101946.51
2022-10-29T00:50:16.248Z,101953.38
2022-10-29T00:52:46.753Z,101950.53
2022-10-29T00:55:16.978Z,101951.41
2022-10-29T00:57:47.360Z,101958.01
2022-10-29T01:00:17.721Z,101948.77
2022-10-29T01:02:48.271Z,101946.04
2022-10-29T01:05:18.486Z,101955.82
2022-10-29T01:07:48.844Z,101959.08
2022-10-29T01:10:18.901Z,101954.87
2022-10-29T01:12:49.248Z,101943.29
2022-10-29T01:15:19.593Z,101932.88
2022-10-29T01:17:49.985Z,101928.47
2022-10-29T01:20:20.775Z,101932.33
2022-10-29T01:22:51.281Z,101927.91
2022-10-29T01:25:21.644Z,101928.29
2022-10-29T01:27:52.086Z,101919.79
2022-10-29T01:30:22.416Z,101922.04
2022-10-29T01:32:53.056Z,101918.01
2022-10-29T01:35:22.903Z,101918.55
2022-10-29T01:37:53.307Z,101919.23
2022-10-29T01:40:23.648Z,101925.50
2022-10-29T01:42:54.313Z,101926.90
2022-10-29T01:45:24.427Z,101927.32
2022-10-29T01:47:55.254Z,101930.08
2022-10-29T01:50:25.217Z,101934.85
2022-10-29T01:52:55.643Z,101931.79
2022-10-29T01:55:25.987Z,101920.21
2022-10-29T01:57:56.618Z,101911.78
2022-10-29T02:00:26.480Z,101910.20
2022-10-29T02:02:56.913Z,101902.71
2022-10-29T02:05:26.903Z,101895.17
2022-10-29T02:07:57.287Z,101893.78
2022-10-29T02:10:27.736Z,101891.13
2022-10-29T02:12:58.456Z,101890.13
2022-10-29T02:15:28.164Z,101881.32
2022-10-29T02:17:58.726Z,101875.45
2022-10-29T02:20:28.970Z,101873.23
2022-10-29T02:22:59.340Z,101875.55
2022-10-29T02:25:29.791Z,101873.24
2022-10-29T02:28:00.107Z,101870.83
2022-10-29T02:30:30.197Z,101881.92
2022-10-29T02:33:00.602Z,101879.31
2022-10-29T02:35:31.101Z,101881.35
2022-10-29T02:38:01.354Z,101883.30
2022-10-29T02:40:31.384Z,101875.63
2022-10-29T02:43:01.807Z,101869.95
2022-10-29T02:45:32.213Z,101871.17
2022-10-29T02:48:02.367Z,101864.92
2022-10-29T02:50:32.832Z,101864.57
2022-10-29T02:53:02.896Z,101866.45
2022-10-29T02:55:33.308Z,101861.15
2022-10-29T02:58:03.732Z,101860.97
2022-10-29T03:00:33.781Z,101864.75
2022-10-29T03:03:04.289Z,101867.71
2022-10-29T03:05:34.668Z,101871.62
2022-10-29T03:08:04.730Z,101872.74
2022-10-29T03:10:35.121Z,101871.94
2022-10-29T03:13:05.524Z,101862.48
2022-10-29T03:15:35.914Z,101859.31
2022-10-29T03:18:06.325Z,101854.30
2022-10-29T03:20:36.744Z,101850.97
2022-10-29T03:23:07.137Z,101848.85
2022-10-29T03:25:37.531Z,101851.58
2022-10-29T03:28:07.970Z,101857.94
2022-10-29T03:30:38.373Z,101863.28
2022-10-29T03:33:08.797Z,101857.70
2022-10-29T03:35:39.292Z,101851.63
2022-10-29T03:38:09.656Z,101852.17
2022-10-29T03:40:40.174Z,101856.37
2022-10-29T03:43:10.545Z,101865.61
2022-10-29T03:45:40.928Z,101864.67
2022-10-29T03:48:11.387Z,101868.47
2022-10-29T03:50:41.807Z,101867.66
2022-10-29T03:53:12.242Z,101869.76
2022-10-29T03:55:42.953Z,101866.19
2022-10-29T03:58:13.399Z,101867.67
2022-10-29T04:00:43.823Z,101861.84
2022-10-29T04:03:14.267Z,101853.47
2022-10-29T04:05:44.705Z,101862.06
2022-10-29T04:08:15.127Z,101865.89
2022-10-29T04:10:45.538Z,101859.98
2022-10-29T04:13:15.980Z,101862.60
2022-10-29T04:15:46.545Z,101855.77
2022-10-29T04:18:16.855Z,101854.08
2022-10-29T04:22:26.947Z,101853.06
2022-10-29T04:26:42.122Z,101842.17
2022-10-29T04:28:42.437Z,101845.11
2022-10-29T04:30:49.023Z,101855.90
2022-10-29T04:33:19.481Z,101860.18
2022-10-29T04:35:49.910Z,101862.04
2022-10-29T04:38:20.343Z,101867.95
2022-10-29T04:40:50.781Z,101877.34
2022-10-29T04:43:21.325Z,101887.92
2022-10-29T04:45:51.301Z,101887.05
2022-10-29T04:48:21.478Z,101884.14
2022-10-29T04:50:52.030Z,101882.75
2022-10-29T04:53:22.374Z,101879.14
2022-10-29T04:55:52.808Z,101876.13
2022-10-29T04:58:23.265Z,101877.44
2022-10-29T05:00:53.458Z,101882.94
2022-10-29T05:03:23.546Z,101884.19
2022-10-29T05:05:54.001Z,101886.05
2022-10-29T05:08:24.557Z,101879.46
2022-10-29T05:10:54.632Z,101879.10
2022-10-29T05:13:25.110Z,101877.33
2022-10-29T05:15:55.554Z,101876.09
2022-10-29T05:18:26.033Z,101877.06
2022-10-29T05:20:56.215Z,101876.93
2022-10-29T05:23:26.675Z,101872.91
2022-10-29T05:25:57.129Z,101866.74
2022-10-29T05:28:27.669Z,101864.97
2022-10-29T05:30:58.070Z,101869.43
2022-10-29T05:33:28.634Z,101873.61
2022-10-29T05:35:59.072Z,101875.95
2022-10-29T05:38:29.487Z,101876.25
2022-10-29T05:40:59.963Z,101873.74
2022-10-29T05:43:30.549Z,101870.72
2022-10-29T05:46:00.556Z,101867.21
2022-10-29T05:48:31.027Z,101862.69
2022-10-29T05:51:01.504Z,101857.08
2022-10-29T05:53:31.669Z,101855.38
2022-10-29T05:56:02.105Z,101856.81
2022-10-29T05:58:32.563Z,101857.34
2022-10-29T06:01:02.822Z,101852.26
2022-10-29T06:03:33.202Z,101845.15
2022-10-29T06:06:03.774Z,101848.03
2022-10-29T06:08:34.365Z,101845.66
2022-10-29T06:11:04.736Z,101843.78
2022-10-29T06:13:35.181Z,101842.64
2022-10-29T06:16:05.667Z,101841.97
2022-10-29T06:18:36.072Z,101840.90
2022-10-29T06:21:06.529Z,101841.59
2022-10-29T06:23:37.054Z,101842.45
2022-10-29T06:26:07.481Z,101834.86
2022-10-29T06:28:37.891Z,101826.16
2022-10-29T06:31:08.478Z,101827.44
2022-10-29T06:33:38.803Z,101828.67
2022-10-29T06:36:09.271Z,101833.34
2022-10-29T06:38:39.729Z,101832.93
2022-10-29T06:41:09.947Z,101833.74
2022-10-29T06:43:40.410Z,101838.00
2022-10-29T06:46:10.962Z,101839.06
2022-10-29T06:48:41.306Z,101843.68
2022-10-29T06:51:11.725Z,101841.93
2022-10-29T06:53:41.936Z,101839.39
2022-10-29T06:56:12.391Z,101844.73
2022-10-29T06:58:42.848Z,101844.49
2022-10-29T07:01:13.499Z,101842.61
2022-10-29T07:03:43.685Z,101836.52
2022-10-29T07:06:14.201Z,101836.29
2022-10-29T07:08:44.531Z,101841.18
2022-10-29T07:11:14.965Z,101837.44
2022-10-29T07:13:45.393Z,101835.42
2022-10-29T07:16:15.511Z,101834.29
2022-10-29T07:18:45.929Z,101838.35
2022-10-29T07:21:16.367Z,101841.17
2022-10-29T07:23:46.806Z,101839.69
2022-10-29T07:26:17.219Z,101841.63
2022-10-29T07:28:47.385Z,101843.00
2022-10-29T07:31:18.210Z,101836.85
2022-10-29T07:33:48.527Z,101835.65
2022-10-29T07:36:18.965Z,101832.04
2022-10-29T07:38:49.380Z,101830.63
2022-10-29T07:41:19.899Z,101830.42
2022-10-29T07:43:50.544Z,101828.78
2022-10-29T07:46:21.221Z,101836.84
2022-10-29T07:48:51.928Z,101839.02
2022-10-29T07:51:22.373Z,101845.93
2022-10-29T07:53:52.489Z,101847.59
2022-10-29T07:56:22.910Z,101851.16
2022-10-29T07:58:53.292Z,101848.77
2022-10-29T08:01:23.893Z,101850.91
2022-10-29T08:03:53.868Z,101854.20
2022-10-29T08:06:24.298Z,101859.85
2022-10-29T08:08:54.715Z,101861.75
2022-10-29T08:11:25.352Z,101861.58
2022-10-29T08:13:55.874Z,101860.90
2022-10-29T08:16:26.276Z,101854.28
2022-10-29T08:18:56.922Z,101847.35
2022-10-29T08:21:27.248Z,101846.07
2022-10-29T08:23:57.401Z,101847.69
2022-10-29T08:26:27.997Z,101847.75
2022-10-29T08:28:58.664Z,101847.49
2022-10-29T08:31:29.341Z,101845.08
2022-10-29T08:33:59.979Z,101841.64
2022-10-29T08:36:30.119Z,101843.71
2022-10-29T08:39:00.583Z,101850.34
2022-10-29T08:41:30.975Z,101847.94
2022-10-29T08:46:31.436Z,101837.18
2022-10-29T08:49:01.867Z,101836.09
2022-10-29T08:51:32.080Z,101825.64
2022-10-29T08:54:31.001Z,101821.05
2022-10-29T08:56:32.761Z,101818.37
2022-10-29T08:59:02.995Z,101815.65
2022-10-29T09:01:33.369Z,101814.41
2022-10-29T09:04:03.614Z,101812.28
2022-10-29T09:06:34.289Z,101806.82
2022-10-29T09:09:04.937Z,101805.99
2022-10-29T09:11:35.765Z,101806.43
2022-10-29T09:14:06.331Z,101805.74
2022-10-29T09:16:36.997Z,101808.24
2022-10-29T09:19:07.423Z,101810.56
2022-10-29T09:21:37.599Z,101814.37
2022-10-29T09:24:07.947Z,101809.25
2022-10-29T09:26:38.377Z,101804.90
2022-10-29T09:29:09.066Z,101809.02
2022-10-29T09:31:39.746Z,101806.78
2022-10-29T09:34:10.448Z,101800.65
2022-10-29T09:36:41.139Z,101798.07
2022-10-29T09:39:11.227Z,101806.07
2022-10-29T09:41:41.310Z,101809.03
2022-10-29T09:44:11.651Z,101805.49
2022-10-29T09:46:42.972Z,101802.18
2022-10-29T09:49:11.873Z,101795.53
2022-10-29T09:51:42.633Z,101789.03
2022-10-29T09:54:12.984Z,101775.77
2022-10-29T09:56:43.399Z,101774.94
2022-10-29T09:59:13.996Z,101774.88
2022-10-29T10:01:44.073Z,101778.76
2022-10-29T10:04:14.768Z,101781.57
2022-10-29T10:06:45.233Z,101779.54
2022-10-29T10:09:15.495Z,101780.93
2022-10-29T10:11:46.118Z,101780.78
2022-10-29T10:14:16.895Z,101771.65
2022-10-29T10:16:47.032Z,101771.85
2022-10-29T10:19:17.281Z,101779.91
2022-10-29T10:21:47.184Z,101782.22
2022-10-29T10:24:17.455Z,101780.21
2022-10-29T10:26:47.986Z,101778.89
2022-10-29T10:29:18.889Z,101772.97
2022-10-29T10:31:49.413Z,101773.15
2022-10-29T10:34:20.261Z,101769.79
2022-10-29T10:36:50.838Z,101763.90
2022-10-29T10:39:21.138Z,101758.37
2022-10-29T10:41:51.096Z,101761.93
2022-10-29T10:44:21.434Z,101760.55
2022-10-29T10:46:51.990Z,101753.98
2022-10-29T10:49:22.294Z,101752.68
2022-10-29T10:51:52.799Z,101746.22
2022-10-29T10:54:23.445Z,101743.95
2022-10-29T10:56:53.508Z,101739.27
2022-10-29T10:59:23.759Z,101734.91
2022-10-29T11:01:54.502Z,101730.68
2022-10-29T11:04:24.702Z,101733.91
2022-10-29T11:06:55.683Z,101730.43
2022-10-29T11:09:26.039Z,101725.94
2022-10-29T11:11:58.916Z,101719.75
2022-10-29T11:14:26.829Z,101710.13
2022-10-29T11:16:57.648Z,101706.15
2022-10-29T11:19:31.313Z,101706.19
2022-10-29T11:21:58.919Z,101707.76
2022-10-29T11:24:29.647Z,101704.75
2022-10-29T11:27:00.482Z,101701.18
2022-10-29T11:29:31.313Z,101698.17
2022-10-29T11:32:01.895Z,101690.44
2022-10-29T11:34:32.898Z,101675.37
2022-10-29T11:37:03.148Z,101669.55
2022-10-29T11:39:33.763Z,101682.78
2022-10-29T11:42:04.415Z,101676.45
2022-10-29T11:44:35.250Z,101676.14
2022-10-29T11:47:05.522Z,101677.30
2022-10-29T11:49:36.594Z,101681.07
2022-10-29T11:52:06.701Z,101678.79
2022-10-29T11:54:37.509Z,101674.68
2022-10-29T11:57:08.224Z,101666.61
2022-10-29T11:59:38.309Z,101665.70
2022-10-29T12:02:08.838Z,101669.13
2022-10-29T12:04:39.100Z,101668.25
2022-10-29T12:07:09.592Z,101668.40
2022-10-29T12:09:40.291Z,101668.88
2022-10-29T12:12:10.870Z,101671.53
2022-10-29T12:14:41.760Z,101669.36
2022-10-29T12:17:12.310Z,101663.88
2022-10-29T12:19:42.840Z,101658.97
2022-10-29T12:22:12.960Z,101659.90
2022-10-29T12:24:43.186Z,101657.00
2022-10-29T12:27:13.632Z,101652.52
2022-10-29T12:29:43.944Z,101648.98
2022-10-29T12:32:14.504Z,101645.03
2022-10-29T12:34:44.591Z,101642.11
2022-10-29T12:37:15.416Z,101644.04
2022-10-29T12:39:45.716Z,101633.89
2022-10-29T12:42:16.268Z,101624.61
2022-10-29T12:44:46.788Z,101620.36
2022-10-29T12:47:17.314Z,101616.72
2022-10-29T12:49:48.137Z,101612.76
2022-10-29T12:52:18.913Z,101611.02
2022-10-29T12:54:49.520Z,101607.64
2022-10-29T12:57:20.483Z,101605.51
2022-10-29T12:59:50.795Z,101614.91
2022-10-29T13:02:21.525Z,101619.62
2022-10-29T13:04:51.949Z,101619.02
2022-10-29T13:07:22.188Z,101619.10
2022-10-29T13:09:52.511Z,101616.63
2022-10-29T13:12:23.223Z,101610.93
2022-10-29T13:14:53.710Z,101609.17
2022-10-29T13:17:23.942Z,101604.39
2022-10-29T13:19:54.208Z,101599.74
2022-10-29T13:22:24.970Z,101594.82
2022-10-29T13:24:55.637Z,101587.50
2022-10-29T13:27:25.751Z,101579.26
2022-10-29T13:29:56.622Z,101575.39
2022-10-29T13:32:26.823Z,101579.11
2022-10-29T13:34:57.072Z,101578.75
2022-10-29T13:37:27.247Z,101577.63
2022-10-29T13:39:58.108Z,101578.81
2022-10-29T13:42:28.375Z,101571.73
2022-10-29T13:44:58.751Z,101566.52
2022-10-29T13:47:28.630Z,101561.52
2022-10-29T13:49:59.435Z,101563.96
2022-10-29T13:52:30.144Z,101559.50
2022-10-29T13:55:00.759Z,101557.59
2022-10-29T13:57:31.654Z,101558.29
2022-10-29T14:00:02.081Z,101562.53
2022-10-29T14:02:32.434Z,101558.24
2022-10-29T14:05:03.201Z,101554.73
2022-10-29T14:07:33.969Z,101555.85
2022-10-29T14:10:04.866Z,101559.33
2022-10-29T14:12:35.106Z,101554.83
2022-10-29T14:15:05.454Z,101552.62
2022-10-29T14:17:36.452Z,101549.87
2022-10-29T14:20:06.852Z,101543.21
2022-10-29T14:22:37.463Z,101546.75
2022-10-29T14:25:07.807Z,101547.94
2022-10-29T14:27:38.294Z,101553.71
2022-10-29T14:30:09.129Z,101557.97
2022-10-29T14:32:39.459Z,101549.14
2022-10-29T14:35:10.174Z,101546.66
2022-10-29T14:37:40.971Z,101541.30
2022-10-29T14:40:11.244Z,101536.96
2022-10-29T14:42:42.054Z,101529.09
2022-10-29T14:45:12.854Z,101535.25
2022-10-29T14:47:43.668Z,101534.02
2022-10-29T14:50:14.489Z,101532.47
2022-10-29T14:52:49.674Z,101527.92
2022-10-29T14:55:15.547Z,101532.51
2022-10-29T14:57:45.749Z,101530.65
2022-10-29T15:00:16.563Z,101528.20
2022-10-29T15:02:46.943Z,101529.47
2022-10-29T15:05:17.688Z,101526.64
2022-10-29T15:07:48.037Z,101525.07
2022-10-29T15:10:18.274Z,101520.08
2022-10-29T15:12:48.510Z,101522.68
2022-10-29T15:15:18.907Z,101522.94
2022-10-29T15:17:48.967Z,101521.25
2022-10-29T15:20:19.303Z,101516.84
2022-10-29T15:22:49.449Z,101515.25
2022-10-29T15:25:19.720Z,101510.88
2022-10-29T15:27:49.914Z,101506.50
2022-10-29T15:30:20.669Z,101506.81
2022-10-29T15:32:51.035Z,101507.21
2022-10-29T15:35:21.292Z,101501.16
2022-10-29T15:37:51.777Z,101503.36
2022-10-29T15:40:21.991Z,101507.33
2022-10-29T15:42:52.213Z,101508.26
2022-10-29T15:45:23.025Z,101507.07
2022-10-29T15:47:53.254Z,101507.50
2022-10-29T15:50:23.636Z,101508.89
2022-10-29T15:52:53.790Z,101503.94
2022-10-29T15:55:26.778Z,101500.92
2022-10-29T15:57:55.069Z,101501.04
2022-10-29T16:00:25.329Z,101502.47
2022-10-29T16:02:56.405Z,101500.08
2022-10-29T16:05:27.010Z,101498.93
2022-10-29T16:07:57.542Z,101499.00
2022-10-29T16:10:28.382Z,101500.78
2022-10-29T16:12:58.941Z,101500.36
2022-10-29T16:15:28.916Z,101500.55
2022-10-29T16:18:00.004Z,101499.63
2022-10-29T16:20:30.028Z,101500.15
2022-10-29T16:23:00.294Z,101500.10
2022-10-29T16:25:30.569Z,101505.13
2022-10-29T16:28:01.130Z,101505.42
2022-10-29T16:30:31.242Z,101501.72
2022-10-29T16:33:01.558Z,101502.20
2022-10-29T16:35:31.706Z,101501.64
2022-10-29T16:38:02.092Z,101502.32
2022-10-29T16:40:32.545Z,101505.62
2022-10-29T16:43:02.804Z,101504.57
2022-10-29T16:45:33.664Z,101501.06
2022-10-29T16:48:03.888Z,101504.45
2022-10-29T16:50:34.820Z,101500.04
2022-10-29T16:53:05.002Z,101495.66
2022-10-29T16:55:35.563Z,101494.57
2022-10-29T16:58:06.022Z,101496.15
2022-10-29T17:00:36.307Z,101495.49
2022-10-29T17:03:08.415Z,101492.62
2022-10-29T17:05:36.854Z,101491.85
2022-10-29T17:08:07.691Z,101491.19
2022-10-29T17:10:37.969Z,101488.58
2022-10-29T17:13:08.789Z,101487.46
2022-10-29T17:15:39.080Z,101484.75
2022-10-29T17:18:09.340Z,101487.19
2022-10-29T17:20:40.253Z,101486.82
2022-10-29T17:23:10.747Z,101488.58
2022-10-29T17:25:41.128Z,101488.75
2022-10-29T17:28:11.832Z,101487.22
2022-10-29T17:30:42.682Z,101489.87
2022-10-29T17:33:12.962Z,101490.11
2022-10-29T17:35:43.250Z,101491.08
2022-10-29T17:38:13.763Z,101490.16
2022-10-29T17:40:44.045Z,101485.76
2022-10-29T17:43:14.040Z,101485.91
2022-10-29T17:45:44.353Z,101485.95
2022-10-29T17:48:14.364Z,101485.39
2022-10-29T17:50:44.485Z,101487.03
2022-10-29T17:53:15.058Z,101485.97
2022-10-29T17:55:45.643Z,101483.72
2022-10-29T17:58:18.149Z,101482.49
2022-10-29T18:00:46.862Z,101482.05
2022-10-29T18:03:16.911Z,101483.12
2022-10-29T18:05:47.726Z,101481.63
2022-10-29T18:08:18.559Z,101483.94
2022-10-29T18:10:49.450Z,101480.36
2022-10-29T18:13:19.757Z,101480.57
2022-10-29T18:15:50.103Z,101476.45
2022-10-29T18:18:20.981Z,101483.60
2022-10-29T18:20:51.325Z,101481.92
2022-10-29T18:23:22.237Z,101482.12
2022-10-29T18:25:53.210Z,101481.88
2022-10-29T18:28:24.028Z,101482.27
2022-10-29T18:30:54.148Z,101483.55
2022-10-29T18:33:24.401Z,101485.97
2022-10-29T18:35:55.004Z,101480.18
2022-10-29T18:38:29.814Z,101476.87
2022-10-29T18:40:55.392Z,101474.52
2022-10-29T18:43:25.729Z,101476.49
2022-10-29T18:45:56.082Z,101478.07
2022-10-29T18:48:26.337Z,101478.98
2022-10-29T18:50:56.231Z,101481.36
2022-10-29T18:53:26.505Z,101476.10
2022-10-29T18:55:56.696Z,101468.24
2022-10-29T18:58:26.920Z,101472.37
2022-10-29T19:00:57.307Z,101469.89
2022-10-29T19:05:58.292Z,101465.58
2022-10-29T19:08:29.248Z,101462.53
2022-10-29T19:11:00.031Z,101455.87
2022-10-29T19:13:30.371Z,101449.95
2022-10-29T19:16:01.309Z,101450.28
2022-10-29T19:18:31.614Z,101445.48
2022-10-29T19:21:02.583Z,101441.20
2022-10-29T19:23:33.431Z,101436.15
2022-10-29T19:26:04.346Z,101428.82
2022-10-29T19:28:34.670Z,101424.40
2022-10-29T19:31:04.954Z,101420.44
2022-10-29T19:33:35.292Z,101418.71
2022-10-29T19:36:05.647Z,101418.09
2022-10-29T19:38:35.929Z,101418.20
2022-10-29T19:41:06.624Z,101416.63
2022-10-29T19:43:36.916Z,101413.88
2022-10-29T19:46:07.576Z,101412.76
2022-10-29T19:48:37.859Z,101408.30
2022-10-29T19:51:07.954Z,101405.13
2022-10-29T19:53:37.958Z,101401.97
2022-10-29T19:56:08.363Z,101401.02
2022-10-29T19:58:38.369Z,101397.40
2022-10-29T20:01:08.812Z,101394.23
2022-10-29T20:03:39.053Z,101391.86
2022-10-29T20:06:09.147Z,101391.65
2022-10-29T20:08:39.486Z,101388.28
2022-10-29T20:11:09.468Z,101385.75
2022-10-29T20:13:39.804Z,101386.05
2022-10-29T20:16:10.156Z,101384.42
2022-10-29T20:18:40.493Z,101377.96
2022-10-29T20:21:10.583Z,101371.86
2022-10-29T20:23:40.618Z,101369.77
2022-10-29T20:26:11.165Z,101370.85
2022-10-29T20:28:41.213Z,101380.69
2022-10-29T20:31:11.587Z,101391.07
2022-10-29T20:33:41.896Z,101397.43
2022-10-29T20:36:12.926Z,101435.76
2022-10-29T20:38:42.872Z,101441.97
2022-10-29T20:41:13.113Z,101442.24
2022-10-29T20:43:43.132Z,101437.46
2022-10-29T20:46:14.049Z,101431.18
2022-10-29T20:48:44.782Z,101430.30
2022-10-29T20:51:15.262Z,101434.86
2022-10-29T20:53:46.214Z,101429.91
2022-10-29T20:56:17.063Z,101425.51
2022-10-29T20:58:47.416Z,101419.58
2022-10-29T21:01:17.870Z,101420.40
2022-10-29T21:03:48.327Z,101430.24
2022-10-29T21:06:18.986Z,101434.86
2022-10-29T21:08:49.288Z,101435.06
2022-10-29T21:11:20.171Z,101437.25
2022-10-29T21:13:50.607Z,101443.73
2022-10-29T21:16:21.379Z,101440.87
2022-10-29T21:18:51.685Z,101435.54
2022-10-29T21:21:22.042Z,101435.95
2022-10-29T21:23:52.912Z,101439.74
2022-10-29T21:26:23.221Z,101444.23
2022-10-29T21:28:53.523Z,101450.76
2022-10-29T21:31:23.863Z,101448.82
2022-10-29T21:33:54.739Z,101447.42
2022-10-29T21:36:25.070Z,101453.48
2022-10-29T21:38:55.970Z,101452.01
2022-10-29T21:41:26.285Z,101448.80
2022-10-29T21:43:56.819Z,101442.41
2022-10-29T21:46:27.262Z,101441.76
2022-10-29T21:48:57.495Z,101439.43
2022-10-29T21:51:28.263Z,101439.98
2022-10-29T21:53:58.776Z,101434.35
2022-10-29T21:56:29.177Z,101435.77
2022-10-29T21:58:59.593Z,101441.84
2022-10-29T22:01:29.813Z,101442.59
2022-10-29T22:03:59.805Z,101449.24
2022-10-29T22:06:30.113Z,101447.99
2022-10-29T22:09:00.520Z,101450.04
2022-10-29T22:11:30.744Z,101443.15
2022-10-29T22:14:01.299Z,101442.10
2022-10-29T22:16:31.650Z,101438.30
2022-10-29T22:19:01.969Z,101435.77
2022-10-29T22:21:32.332Z,101438.79
2022-10-29T22:24:02.681Z,101438.19
2022-10-29T22:26:32.980Z,101433.63
2022-10-29T22:29:03.302Z,101436.69
2022-10-29T22:31:33.932Z,101435.65
2022-10-29T22:34:04.247Z,101437.37
2022-10-29T22:36:34.318Z,101441.27
2022-10-29T22:39:04.660Z,101441.82
2022-10-29T22:41:34.977Z,101442.46
2022-10-29T22:44:05.292Z,101442.45
2022-10-29T22:46:35.650Z,101449.18
2022-10-29T22:49:06.277Z,101445.96
2022-10-29T22:51:36.263Z,101446.72
2022-10-29T22:54:06.575Z,101444.47
2022-10-29T22:56:36.615Z,101438.10
2022-10-29T22:59:07.138Z,101437.95
2022-10-29T23:01:40.583Z,101437.92
2022-10-29T23:04:07.509Z,101438.00
2022-10-29T23:06:37.845Z,101435.90
2022-10-29T23:09:08.187Z,101433.26
2022-10-29T23:11:38.506Z,101437.89
2022-10-29T23:14:08.819Z,101445.59
2022-10-29T23:16:38.960Z,101446.24
2022-10-29T23:19:09.754Z,101445.76
2022-10-29T23:21:40.092Z,101442.66
2022-10-29T23:24:10.442Z,101440.73
2022-10-29T23:26:41.312Z,101442.23
2022-10-29T23:29:12.175Z,101442.42
2022-10-29T23:31:42.513Z,101441.76
2022-10-29T23:34:12.808Z,101442.64
2022-10-29T23:36:43.707Z,101443.92
2022-10-29T23:39:14.010Z,101441.69
2022-10-29T23:41:44.333Z,101446.21
2022-10-29T23:44:14.324Z,101449.85
2022-10-29T23:46:45.120Z,101450.55
2022-10-29T23:49:15.614Z,101451.93
2022-10-29T23:51:45.996Z,101450.10
2022-10-29T23:54:16.469Z,101452.78
2022-10-29T23:56:46.346Z,101451.92
2022-10-29T23:59:16.722Z,101449.26
